sensor_id;sensor_type;location;lat;lon;timestamp;temperature;humidity
34558;DHT22;24708;48.888;8.736;2022-07-03T11:54:52;23.40;77.30
34558;DHT22;24708;48.888;8.736;2022-07-03T11:59:49;23.60;76.90
34558;DHT22;24708;48.888;8.736;2022-07-03T12:04:53;24.00;81.40
34558;DHT22;24708;48.888;8.736;2022-07-03T12:07:20;24.40;81.20
34558;DHT22;24708;48.888;8.736;2022-07-03T12:09:50;24.20;76.50
34558;DHT22;24708;48.888;8.736;2022-07-03T12:12:23;24.40;76.10
34558;DHT22;24708;48.888;8.736;2022-07-03T12:14:55;24.50;75.70
34558;DHT22;24708;48.888;8.736;2022-07-03T12:17:24;24.50;75.50
34558;DHT22;24708;48.888;8.736;2022-07-03T12:19:56;24.50;75.40
34558;DHT22;24708;48.888;8.736;2022-07-03T12:22:25;24.50;76.20
34558;DHT22;24708;48.888;8.736;2022-07-03T12:25:03;24.40;75.80
34558;DHT22;24708;48.888;8.736;2022-07-03T12:27:37;24.40;76.00
34558;DHT22;24708;48.888;8.736;2022-07-03T12:30:09;24.40;76.10
34558;DHT22;24708;48.888;8.736;2022-07-03T12:32:38;24.30;76.20
34558;DHT22;24708;48.888;8.736;2022-07-03T12:35:06;24.30;76.40
34558;DHT22;24708;48.888;8.736;2022-07-03T12:37:38;24.30;76.30
34558;DHT22;24708;48.888;8.736;2022-07-03T12:40:12;24.30;76.30
34558;DHT22;24708;48.888;8.736;2022-07-03T12:45:18;24.30;76.30
34558;DHT22;24708;48.888;8.736;2022-07-03T12:47:46;24.30;76.20
34558;DHT22;24708;48.888;8.736;2022-07-03T12:50:23;24.30;76.20
34558;DHT22;24708;48.888;8.736;2022-07-03T12:52:53;24.70;76.30
34558;DHT22;24708;48.888;8.736;2022-07-03T12:55:25;24.40;76.20
34558;DHT22;24708;48.888;8.736;2022-07-03T12:58:12;24.40;76.20
34558;DHT22;24708;48.888;8.736;2022-07-03T13:00:58;24.40;76.20
34558;DHT22;24708;48.888;8.736;2022-07-03T13:03:36;24.40;76.10
34558;DHT22;24708;48.888;8.736;2022-07-03T13:06:13;24.40;76.10
34558;DHT22;24708;48.888;8.736;2022-07-03T13:09:02;24.40;76.10
34558;DHT22;24708;48.888;8.736;2022-07-03T13:11:31;24.40;76.10
34558;DHT22;24708;48.888;8.736;2022-07-03T13:14:15;24.40;76.10
34558;DHT22;24708;48.888;8.736;2022-07-03T13:16:45;24.40;76.00
34558;DHT22;24708;48.888;8.736;2022-07-03T13:19:17;24.40;76.10
34558;DHT22;24708;48.888;8.736;2022-07-03T13:21:45;24.40;76.10
34558;DHT22;24708;48.888;8.736;2022-07-03T13:24:14;24.60;75.70
34558;DHT22;24708;48.888;8.736;2022-07-03T13:26:42;24.50;76.10
34558;DHT22;24708;48.888;8.736;2022-07-03T13:29:09;24.50;75.90
34558;DHT22;24708;48.888;8.736;2022-07-03T13:31:36;24.50;75.90
34558;DHT22;24708;48.888;8.736;2022-07-03T13:34:04;24.50;76.00
34558;DHT22;24708;48.888;8.736;2022-07-03T13:36:32;24.50;75.90
34558;DHT22;24708;48.888;8.736;2022-07-03T13:38:59;24.60;76.00
34558;DHT22;24708;48.888;8.736;2022-07-03T13:41:27;24.60;75.90
34558;DHT22;24708;48.888;8.736;2022-07-03T13:43:54;24.60;76.60
34558;DHT22;24708;48.888;8.736;2022-07-03T13:46:22;24.60;75.90
34558;DHT22;24708;48.888;8.736;2022-07-03T13:48:51;24.60;75.90
34558;DHT22;24708;48.888;8.736;2022-07-03T13:51:20;24.60;75.90
34558;DHT22;24708;48.888;8.736;2022-07-03T13:53:47;24.60;76.50
34558;DHT22;24708;48.888;8.736;2022-07-03T13:56:16;24.70;75.90
34558;DHT22;24708;48.888;8.736;2022-07-03T13:58:44;24.70;75.90
34558;DHT22;24708;48.888;8.736;2022-07-03T14:01:18;24.70;75.80
34558;DHT22;24708;48.888;8.736;2022-07-03T14:03:46;24.70;75.70
34558;DHT22;24708;48.888;8.736;2022-07-03T14:06:13;24.70;75.80
34558;DHT22;24708;48.888;8.736;2022-07-03T14:08:40;24.70;75.80
34558;DHT22;24708;48.888;8.736;2022-07-03T14:11:08;24.70;75.80
34558;DHT22;24708;48.888;8.736;2022-07-03T14:13:35;24.70;75.80
34558;DHT22;24708;48.888;8.736;2022-07-03T14:16:02;24.80;78.30
34558;DHT22;24708;48.888;8.736;2022-07-03T14:18:30;24.70;79.40
34558;DHT22;24708;48.888;8.736;2022-07-03T14:20:58;24.60;77.90
34558;DHT22;24708;48.888;8.736;2022-07-03T14:23:25;24.90;78.00
34558;DHT22;24708;48.888;8.736;2022-07-03T14:25:53;24.50;79.80
34558;DHT22;24708;48.888;8.736;2022-07-03T14:28:20;24.30;77.70
34558;DHT22;24708;48.888;8.736;2022-07-03T14:31:06;24.90;78.80
34558;DHT22;24708;48.888;8.736;2022-07-03T14:33:52;24.80;76.20
34558;DHT22;24708;48.888;8.736;2022-07-03T14:36:20;23.80;76.80
34558;DHT22;24708;48.888;8.736;2022-07-03T14:39:08;24.80;76.10
34558;DHT22;24708;48.888;8.736;2022-07-03T14:41:35;25.40;78.10
34558;DHT22;24708;48.888;8.736;2022-07-03T14:44:02;24.80;76.00
34558;DHT22;24708;48.888;8.736;2022-07-03T14:46:30;24.90;76.10
34558;DHT22;24708;48.888;8.736;2022-07-03T14:48:57;24.80;78.40
34558;DHT22;24708;48.888;8.736;2022-07-03T14:51:24;24.90;76.10
34558;DHT22;24708;48.888;8.736;2022-07-03T14:53:52;24.90;76.00
34558;DHT22;24708;48.888;8.736;2022-07-03T14:56:19;25.20;78.80
34558;DHT22;24708;48.888;8.736;2022-07-03T14:58:47;24.90;76.00
34558;DHT22;24708;48.888;8.736;2022-07-03T15:01:17;24.90;75.90
34558;DHT22;24708;48.888;8.736;2022-07-03T15:04:06;24.90;75.90
34558;DHT22;24708;48.888;8.736;2022-07-03T15:06:36;24.90;75.90
34558;DHT22;24708;48.888;8.736;2022-07-03T15:09:04;24.90;75.80
34558;DHT22;24708;48.888;8.736;2022-07-03T15:11:43;24.90;75.80
34558;DHT22;24708;48.888;8.736;2022-07-03T15:14:33;24.90;75.70
34558;DHT22;24708;48.888;8.736;2022-07-03T15:17:06;24.90;75.70
34558;DHT22;24708;48.888;8.736;2022-07-03T15:19:37;25.00;75.70
34558;DHT22;24708;48.888;8.736;2022-07-03T15:22:07;25.00;75.70
34558;DHT22;24708;48.888;8.736;2022-07-03T15:24:37;24.90;75.40
34558;DHT22;24708;48.888;8.736;2022-07-03T15:27:05;25.00;75.60
34558;DHT22;24708;48.888;8.736;2022-07-03T15:29:35;25.00;75.60
34558;DHT22;24708;48.888;8.736;2022-07-03T15:32:04;25.00;75.50
34558;DHT22;24708;48.888;8.736;2022-07-03T15:34:36;25.00;75.50
34558;DHT22;24708;48.888;8.736;2022-07-03T15:40:05;25.00;75.50
34558;DHT22;24708;48.888;8.736;2022-07-03T15:48:03;25.00;75.40
34558;DHT22;24708;48.888;8.736;2022-07-03T15:53:03;25.00;75.50
34558;DHT22;24708;48.888;8.736;2022-07-03T15:55:33;25.00;75.50
34558;DHT22;24708;48.888;8.736;2022-07-03T15:58:04;25.00;75.50
34558;DHT22;24708;48.888;8.736;2022-07-03T16:00:35;25.00;75.00
34558;DHT22;24708;48.888;8.736;2022-07-03T16:03:20;25.00;75.50
34558;DHT22;24708;48.888;8.736;2022-07-03T16:05:54;25.10;75.60
34558;DHT22;24708;48.888;8.736;2022-07-03T16:08:24;25.00;75.60
34558;DHT22;24708;48.888;8.736;2022-07-03T16:10:51;25.00;75.60
34558;DHT22;24708;48.888;8.736;2022-07-03T16:13:25;25.50;76.00
34558;DHT22;24708;48.888;8.736;2022-07-03T16:15:57;25.10;75.70
34558;DHT22;24708;48.888;8.736;2022-07-03T16:18:24;25.10;75.80
34558;DHT22;24708;48.888;8.736;2022-07-03T16:20:54;25.00;75.70
34558;DHT22;24708;48.888;8.736;2022-07-03T16:23:22;25.00;75.70
34558;DHT22;24708;48.888;8.736;2022-07-03T16:25:53;25.10;75.80
34558;DHT22;24708;48.888;8.736;2022-07-03T16:28:23;25.10;76.80
34558;DHT22;24708;48.888;8.736;2022-07-03T16:30:50;25.10;77.00
34558;DHT22;24708;48.888;8.736;2022-07-03T16:33:22;25.20;77.20
34558;DHT22;24708;48.888;8.736;2022-07-03T16:36:02;25.20;77.50
34558;DHT22;24708;48.888;8.736;2022-07-03T16:38:53;25.30;77.80
34558;DHT22;24708;48.888;8.736;2022-07-03T16:41:35;25.40;77.60
34558;DHT22;24708;48.888;8.736;2022-07-03T16:44:05;25.50;77.70
34558;DHT22;24708;48.888;8.736;2022-07-03T16:46:34;25.50;77.50
34558;DHT22;24708;48.888;8.736;2022-07-03T16:49:03;25.50;77.50
34558;DHT22;24708;48.888;8.736;2022-07-03T16:51:34;25.50;77.30
34558;DHT22;24708;48.888;8.736;2022-07-03T16:54:02;25.60;77.50
34558;DHT22;24708;48.888;8.736;2022-07-03T16:56:30;25.60;77.40
34558;DHT22;24708;48.888;8.736;2022-07-03T16:58:59;25.70;77.40
34558;DHT22;24708;48.888;8.736;2022-07-03T17:01:27;25.70;77.30
34558;DHT22;24708;48.888;8.736;2022-07-03T17:03:56;25.70;77.40
34558;DHT22;24708;48.888;8.736;2022-07-03T17:06:24;25.80;77.40
34558;DHT22;24708;48.888;8.736;2022-07-03T17:08:51;25.80;77.40
34558;DHT22;24708;48.888;8.736;2022-07-03T17:11:20;25.80;77.40
34558;DHT22;24708;48.888;8.736;2022-07-03T17:13:47;25.80;77.30
34558;DHT22;24708;48.888;8.736;2022-07-03T17:16:16;25.80;77.10
34558;DHT22;24708;48.888;8.736;2022-07-03T17:18:50;25.80;76.80
34558;DHT22;24708;48.888;8.736;2022-07-03T17:21:30;25.80;76.20
34558;DHT22;24708;48.888;8.736;2022-07-03T17:24:04;25.80;75.90
34558;DHT22;24708;48.888;8.736;2022-07-03T17:26:33;25.80;75.90
34558;DHT22;24708;48.888;8.736;2022-07-03T17:29:03;25.80;75.80
34558;DHT22;24708;48.888;8.736;2022-07-03T17:31:35;25.80;75.40
34558;DHT22;24708;48.888;8.736;2022-07-03T17:34:04;25.80;75.70
34558;DHT22;24708;48.888;8.736;2022-07-03T17:36:35;25.80;75.60
34558;DHT22;24708;48.888;8.736;2022-07-03T17:39:03;25.80;75.70
34558;DHT22;24708;48.888;8.736;2022-07-03T17:41:32;25.90;75.10
34558;DHT22;24708;48.888;8.736;2022-07-03T17:46:28;25.90;75.00
34558;DHT22;24708;48.888;8.736;2022-07-03T17:49:00;25.90;75.50
34558;DHT22;24708;48.888;8.736;2022-07-03T17:51:28;25.90;75.40
34558;DHT22;24708;48.888;8.736;2022-07-03T17:53:57;25.90;75.30
34558;DHT22;24708;48.888;8.736;2022-07-03T17:56:27;26.00;75.00
34558;DHT22;24708;48.888;8.736;2022-07-03T17:58:56;26.00;75.00
34558;DHT22;24708;48.888;8.736;2022-07-03T18:01:25;26.00;75.00
34558;DHT22;24708;48.888;8.736;2022-07-03T18:03:53;26.00;75.30
34558;DHT22;24708;48.888;8.736;2022-07-03T18:06:22;26.10;75.40
34558;DHT22;24708;48.888;8.736;2022-07-03T18:11:41;26.10;75.30
34558;DHT22;24708;48.888;8.736;2022-07-03T18:17:00;26.20;75.40
34558;DHT22;24708;48.888;8.736;2022-07-03T18:19:28;26.20;75.30
34558;DHT22;24708;48.888;8.736;2022-07-03T18:22:03;26.20;75.20
34558;DHT22;24708;48.888;8.736;2022-07-03T18:24:39;26.20;75.20
34558;DHT22;24708;48.888;8.736;2022-07-03T18:27:12;26.20;75.20
34558;DHT22;24708;48.888;8.736;2022-07-03T18:29:44;26.30;75.20
34558;DHT22;24708;48.888;8.736;2022-07-03T18:32:15;26.30;75.20
34558;DHT22;24708;48.888;8.736;2022-07-03T18:34:48;26.30;75.10
34558;DHT22;24708;48.888;8.736;2022-07-03T18:37:17;26.20;75.10
34558;DHT22;24708;48.888;8.736;2022-07-03T18:39:44;26.30;75.10
34558;DHT22;24708;48.888;8.736;2022-07-03T18:42:12;26.30;75.70
34558;DHT22;24708;48.888;8.736;2022-07-03T18:44:41;26.20;75.00
34558;DHT22;24708;48.888;8.736;2022-07-03T18:47:09;26.70;77.70
34558;DHT22;24708;48.888;8.736;2022-07-03T18:49:39;25.80;78.60
34558;DHT22;24708;48.888;8.736;2022-07-03T18:55:26;25.90;76.50
34558;DHT22;24708;48.888;8.736;2022-07-03T18:58:09;25.40;77.50
34558;DHT22;24708;48.888;8.736;2022-07-03T19:00:41;26.10;75.30
34558;DHT22;24708;48.888;8.736;2022-07-03T19:03:16;26.00;75.00
34558;DHT22;24708;48.888;8.736;2022-07-03T19:05:58;26.60;78.80
34558;DHT22;24708;48.888;8.736;2022-07-03T19:08:48;26.00;75.60
34558;DHT22;24708;48.888;8.736;2022-07-03T19:11:14;26.00;78.60
34558;DHT22;24708;48.888;8.736;2022-07-03T19:16:25;26.00;79.20
34558;DHT22;24708;48.888;8.736;2022-07-03T19:18:53;25.80;76.00
34558;DHT22;24708;48.888;8.736;2022-07-03T19:21:20;25.80;77.10
34558;DHT22;24708;48.888;8.736;2022-07-03T19:23:50;25.70;76.10
34558;DHT22;24708;48.888;8.736;2022-07-03T19:26:17;25.70;76.10
34558;DHT22;24708;48.888;8.736;2022-07-03T19:28:44;25.60;76.10
34558;DHT22;24708;48.888;8.736;2022-07-03T19:31:13;25.60;78.70
34558;DHT22;24708;48.888;8.736;2022-07-03T19:33:40;25.20;78.70
34558;DHT22;24708;48.888;8.736;2022-07-03T19:36:07;25.50;76.20
34558;DHT22;24708;48.888;8.736;2022-07-03T19:38:35;25.40;77.40
34558;DHT22;24708;48.888;8.736;2022-07-03T19:41:02;25.50;76.40
34558;DHT22;24708;48.888;8.736;2022-07-03T19:43:31;25.50;76.40
34558;DHT22;24708;48.888;8.736;2022-07-03T19:45:59;25.40;76.40
34558;DHT22;24708;48.888;8.736;2022-07-03T19:48:26;25.40;76.60
34558;DHT22;24708;48.888;8.736;2022-07-03T19:50:53;25.40;76.70
34558;DHT22;24708;48.888;8.736;2022-07-03T19:53:24;25.50;79.90
34558;DHT22;24708;48.888;8.736;2022-07-03T19:55:51;25.40;77.70
34558;DHT22;24708;48.888;8.736;2022-07-03T19:58:21;25.30;76.90
34558;DHT22;24708;48.888;8.736;2022-07-03T20:00:48;25.30;77.40
34558;DHT22;24708;48.888;8.736;2022-07-03T20:03:16;25.20;76.90
34558;DHT22;24708;48.888;8.736;2022-07-03T20:05:44;25.30;77.10
34558;DHT22;24708;48.888;8.736;2022-07-03T20:08:11;25.20;77.00
34558;DHT22;24708;48.888;8.736;2022-07-03T20:10:38;25.20;77.10
34558;DHT22;24708;48.888;8.736;2022-07-03T20:13:06;25.20;77.20
34558;DHT22;24708;48.888;8.736;2022-07-03T20:15:33;25.20;77.10
34558;DHT22;24708;48.888;8.736;2022-07-03T20:18:02;25.10;77.30
34558;DHT22;24708;48.888;8.736;2022-07-03T20:20:42;25.10;76.90
34558;DHT22;24708;48.888;8.736;2022-07-03T20:23:10;25.10;77.20
34558;DHT22;24708;48.888;8.736;2022-07-03T20:25:37;25.20;76.90
34558;DHT22;24708;48.888;8.736;2022-07-03T20:28:08;25.10;77.00
34558;DHT22;24708;48.888;8.736;2022-07-03T20:30:36;24.90;76.50
34558;DHT22;24708;48.888;8.736;2022-07-03T20:33:03;25.90;77.40
34558;DHT22;24708;48.888;8.736;2022-07-03T20:35:34;25.00;76.80
34558;DHT22;24708;48.888;8.736;2022-07-03T20:38:01;25.00;76.90
34558;DHT22;24708;48.888;8.736;2022-07-03T20:40:30;25.10;76.70
34558;DHT22;24708;48.888;8.736;2022-07-03T20:42:57;25.00;77.00
34558;DHT22;24708;48.888;8.736;2022-07-03T20:45:25;25.00;77.00
34558;DHT22;24708;48.888;8.736;2022-07-03T20:47:53;25.00;77.00
34558;DHT22;24708;48.888;8.736;2022-07-03T20:50:21;24.90;77.00
34558;DHT22;24708;48.888;8.736;2022-07-03T20:52:55;24.90;77.00
34558;DHT22;24708;48.888;8.736;2022-07-03T20:55:22;24.90;77.10
34558;DHT22;24708;48.888;8.736;2022-07-03T20:57:50;24.90;77.20
34558;DHT22;24708;48.888;8.736;2022-07-03T21:00:18;24.90;77.20
34558;DHT22;24708;48.888;8.736;2022-07-03T21:02:45;24.90;77.00
34558;DHT22;24708;48.888;8.736;2022-07-03T21:05:17;24.80;77.20
34558;DHT22;24708;48.888;8.736;2022-07-03T21:07:44;24.80;76.90
34558;DHT22;24708;48.888;8.736;2022-07-03T21:10:12;24.80;77.20
34558;DHT22;24708;48.888;8.736;2022-07-03T21:12:48;24.80;77.20
34558;DHT22;24708;48.888;8.736;2022-07-03T21:15:15;24.80;77.20
34558;DHT22;24708;48.888;8.736;2022-07-03T21:17:43;24.70;77.10
34558;DHT22;24708;48.888;8.736;2022-07-03T21:20:11;24.80;77.20
34558;DHT22;24708;48.888;8.736;2022-07-03T21:22:38;24.70;77.20
34558;DHT22;24708;48.888;8.736;2022-07-03T21:25:06;24.70;77.30
34558;DHT22;24708;48.888;8.736;2022-07-03T21:27:36;24.70;77.30
34558;DHT22;24708;48.888;8.736;2022-07-03T21:30:06;24.70;77.40
34558;DHT22;24708;48.888;8.736;2022-07-03T21:32:41;24.70;77.40
34558;DHT22;24708;48.888;8.736;2022-07-03T21:35:11;24.70;77.40
34558;DHT22;24708;48.888;8.736;2022-07-03T21:37:39;24.60;77.30
34558;DHT22;24708;48.888;8.736;2022-07-03T21:40:09;24.70;77.50
34558;DHT22;24708;48.888;8.736;2022-07-03T21:42:36;25.20;77.60
34558;DHT22;24708;48.888;8.736;2022-07-03T21:45:04;24.60;78.00
34558;DHT22;24708;48.888;8.736;2022-07-03T21:47:31;24.60;77.50
34558;DHT22;24708;48.888;8.736;2022-07-03T21:49:59;24.60;77.50
34558;DHT22;24708;48.888;8.736;2022-07-03T21:52:26;24.60;77.60
34558;DHT22;24708;48.888;8.736;2022-07-03T21:54:53;24.50;77.40
34558;DHT22;24708;48.888;8.736;2022-07-03T21:57:23;24.60;77.60
34558;DHT22;24708;48.888;8.736;2022-07-03T21:59:50;24.60;77.70
34558;DHT22;24708;48.888;8.736;2022-07-03T22:02:17;24.50;77.60
34558;DHT22;24708;48.888;8.736;2022-07-03T22:04:45;24.50;77.60
34558;DHT22;24708;48.888;8.736;2022-07-03T22:07:12;24.50;77.60
34558;DHT22;24708;48.888;8.736;2022-07-03T22:09:40;24.50;77.60
34558;DHT22;24708;48.888;8.736;2022-07-03T22:12:11;24.50;77.50
34558;DHT22;24708;48.888;8.736;2022-07-03T22:14:57;24.50;77.60
34558;DHT22;24708;48.888;8.736;2022-07-03T22:17:27;24.40;77.70
34558;DHT22;24708;48.888;8.736;2022-07-03T22:19:55;24.40;77.70
34558;DHT22;24708;48.888;8.736;2022-07-03T22:22:22;24.40;77.60
34558;DHT22;24708;48.888;8.736;2022-07-03T22:24:50;24.40;77.60
34558;DHT22;24708;48.888;8.736;2022-07-03T22:27:19;24.90;77.90
34558;DHT22;24708;48.888;8.736;2022-07-03T22:29:47;24.40;77.70
34558;DHT22;24708;48.888;8.736;2022-07-03T22:32:15;24.40;77.50
34558;DHT22;24708;48.888;8.736;2022-07-03T22:34:43;24.40;77.40
34558;DHT22;24708;48.888;8.736;2022-07-03T22:37:11;24.30;77.90
34558;DHT22;24708;48.888;8.736;2022-07-03T22:39:39;24.40;78.00
34558;DHT22;24708;48.888;8.736;2022-07-03T22:42:08;24.40;78.00
34558;DHT22;24708;48.888;8.736;2022-07-03T22:44:35;24.40;78.00
34558;DHT22;24708;48.888;8.736;2022-07-03T22:47:03;24.40;78.10
34558;DHT22;24708;48.888;8.736;2022-07-03T22:49:30;24.40;78.10
34558;DHT22;24708;48.888;8.736;2022-07-03T22:51:57;24.20;78.10
34558;DHT22;24708;48.888;8.736;2022-07-03T22:54:25;24.40;78.10
34558;DHT22;24708;48.888;8.736;2022-07-03T22:56:52;24.40;77.90
34558;DHT22;24708;48.888;8.736;2022-07-03T22:59:20;24.30;78.20
34558;DHT22;24708;48.888;8.736;2022-07-03T23:01:48;24.30;77.90
34558;DHT22;24708;48.888;8.736;2022-07-03T23:04:15;24.30;78.20
34558;DHT22;24708;48.888;8.736;2022-07-03T23:06:43;24.60;78.50
34558;DHT22;24708;48.888;8.736;2022-07-03T23:09:11;24.90;78.50
34558;DHT22;24708;48.888;8.736;2022-07-03T23:11:39;24.20;77.90
34558;DHT22;24708;48.888;8.736;2022-07-03T23:14:06;24.30;78.40
34558;DHT22;24708;48.888;8.736;2022-07-03T23:16:33;24.30;78.30
34558;DHT22;24708;48.888;8.736;2022-07-03T23:19:01;24.30;78.30
34558;DHT22;24708;48.888;8.736;2022-07-03T23:21:29;24.30;78.30
34558;DHT22;24708;48.888;8.736;2022-07-03T23:23:56;24.30;78.30
34558;DHT22;24708;48.888;8.736;2022-07-03T23:26:23;24.30;78.40
34558;DHT22;24708;48.888;8.736;2022-07-03T23:28:50;24.20;78.30
34558;DHT22;24708;48.888;8.736;2022-07-03T23:31:19;24.30;78.20
34558;DHT22;24708;48.888;8.736;2022-07-03T23:33:46;24.20;78.30
34558;DHT22;24708;48.888;8.736;2022-07-03T23:36:16;24.20;78.40
34558;DHT22;24708;48.888;8.736;2022-07-03T23:38:44;24.20;78.40
34558;DHT22;24708;48.888;8.736;2022-07-03T23:41:11;24.20;78.50
34558;DHT22;24708;48.888;8.736;2022-07-03T23:43:38;24.20;78.40
34558;DHT22;24708;48.888;8.736;2022-07-03T23:46:05;24.20;78.40
34558;DHT22;24708;48.888;8.736;2022-07-03T23:48:36;24.20;78.30
34558;DHT22;24708;48.888;8.736;2022-07-03T23:51:22;24.20;79.00
34558;DHT22;24708;48.888;8.736;2022-07-03T23:53:49;24.10;78.40
34558;DHT22;24708;48.888;8.736;2022-07-03T23:56:16;24.10;78.40
34558;DHT22;24708;48.888;8.736;2022-07-03T23:58:44;24.10;78.40
